Tiempo atmosférico en la estación meteorológica de Fuente El Sol, Valladolid (755 m.)



Fecha
DESCASC
Temp. máxima en grados centígrados (hora)
DESCASC
Temp. mínima en grados centígrados (hora)
DESCASC
Temp. media en grados centígrados
DESCASC
Racha de viento máxima en m/sg (hora)
DESCASC
Velocidad máxima media en intervalos de 10 minutos(hora)
DESCASC
Precipitaciones diarias en mm
DESCASC
Precipitaciones de 00:00 a 06:00 en mm
DESCASC
Precipitaciones de 06:00 a 12:00 en mm
DESCASC
Precipitaciones de 12:00 a 18:00 en mm
DESCASC
Precipitaciones de 18:00 a 24:00 en mm
DESCASC
14-10-2018 20.7 (02:40) 9 (11:10) 14.9 16.94 (03:30) 12.22 (03:40) 5.2 2 3.2 0 0
13-10-2018 27.3 (15:40) 8.4 (07:20) 17.8 11.67 (16:40) 7.5 (19:30) 0 0 0 0 0
12-10-2018 24.5 (16:10) 8.4 (08:20) 16.4 9.17 (12:20) 6.67 (13:10) 0 0 0 0 0
11-10-2018 21.2 (17:00) 8.4 (03:00) 14.8 14.44 (17:40) 10 (13:30) 0 0 0 0 0
10-10-2018 22.3 (16:30) 7.5 (08:40) 14.9 12.78 (17:00) 8.33 (17:00) 0 0 0 0 0
08-10-2018 19.2 (17:20) 1.2 (07:40) 10.2 8.89 (15:00) 5.28 (16:50) 0 0 0 0 0
07-10-2018 17.7 (17:20) 3.1 (08:40) 10.4 10.56 (14:00) 5 (03:30) 0 0 0 0 0
05-10-2018 29.7 (16:50) 4.6 (06:20) 17.2 8.61 (15:10) 4.17 (23:00) 0 0 0 0 0
04-10-2018 28.4 (18:00) 4.1 (00:00) 16.2 6.67 (14:00) 2.78 (14:30) 0 0 0 0 0
03-10-2018 27.2 (17:50) 2.3 (08:30) 14.8 6.39 (16:30) 3.61 (20:40) 0 0 0 0 0
02-10-2018 23.3 (17:50) 1 (00:00) 12.1 7.22 (15:00) 4.17 (16:20) -- -- -- -- 0
01-10-2018 22 (15:50) 6.6 (00:00) 14.3 11.67 (18:40) 6.67 (11:20) -- -- -- -- --
30-09-2018 29.1 (17:50) 7.8 (00:00) 18.5 8.06 (23:20) 5.56 (19:00) -- -- -- -- --
29-09-2018 30.1 (16:50) 8 (00:00) 19.1 6.39 (14:50) 2.5 (13:20) -- -- -- -- --
28-09-2018 30.2 (17:30) 10.2 (00:00) 20.2 7.22 (17:10) 3.89 (17:10) -- -- -- -- --
27-09-2018 30.4 (17:20) 16.2 (00:00) 23.3 11.11 (04:10) 7.78 (04:10) -- -- -- -- --
26-09-2018 28.5 (17:10) 9.3 (00:00) 18.9 12.78 (16:40) 9.17 (15:00) -- -- -- -- --
25-09-2018 28.8 (18:00) 6.1 (00:00) 17.4 6.11 (15:00) 3.89 (15:10) -- -- -- -- --
24-09-2018 28.6 (16:20) 11.5 (00:00) 20.1 8.89 (17:40) 6.11 (20:00) -- -- -- -- --
23-09-2018 33.7 (18:00) 10.5 (08:10) 22.1 8.61 (15:40) 4.17 (14:30) -- -- -- -- --
22-09-2018 32.3 (17:30) 9.4 (07:40) 20.8 6.67 (17:00) 3.89 (17:00) -- -- -- -- --
21-09-2018 29.9 (16:00) 12.1 (08:00) 21 6.67 (16:40) 4.17 (06:30) -- -- -- -- --
20-09-2018 31.9 (15:10) 12.7 (08:10) 22.3 10 (15:30) 6.39 (18:20) -- -- -- -- --
19-09-2018 31.6 (16:20) 12.6 (06:10) 22.1 7.5 (16:00) 4.17 (16:00) -- -- -- -- --
18-09-2018 32 (16:40) 15.3 (07:50) 23.7 13.33 (18:00) 9.17 (18:10) -- -- -- -- --
17-09-2018 31.8 (18:00) 13.5 (07:20) 22.6 10.56 (16:20) 7.22 (18:50) -- -- -- -- --
16-09-2018 32.4 (16:30) 13.8 (00:00) 23.1 10.83 (17:20) 7.22 (17:20) -- -- -- -- --
15-09-2018 32.7 (18:10) 10.8 (00:00) 21.8 6.11 (16:50) 3.61 (16:50) -- -- -- -- --

Gráficas

Temp. máximas Temp. mínimas Temp. medias Precipitaciones Rachas de viento máximas Velocidades máximas media en intervalos de 10 minutos

Datos horarios

Fecha y hora oficial Temperatura (ºC) Velocidad del viento (km/h) Dirección del viento Racha (km/h) Dirección de racha Precipitación (mm) Presión (hPa) Tendencia (hPa) Humedad (%)
2018-10-14 23:00:00 10.7 17 Oeste 26 Oeste 0 -- -- 76
2018-10-14 22:00:00 11.3 6 Oeste 11 Oeste 0 -- -- 80
2018-10-14 21:00:00 10.7 4 Sur 5 Este 0 -- -- 81
2018-10-14 20:00:00 10.8 5 Nordeste 27 Sudoeste 0 -- -- 79
2018-10-14 19:00:00 12.9 22 Oeste 30 Oeste 0 -- -- 68
2018-10-14 18:00:00 13.1 18 Oeste 25 Oeste 0 -- -- 60
2018-10-14 17:00:00 12.8 17 Oeste 27 Oeste 0 -- -- 62
2018-10-14 16:00:00 11.6 22 Oeste 32 Oeste 0 -- -- 72
2018-10-14 15:00:00 11.6 23 Oeste 32 Oeste 0 -- -- 72
2018-10-14 14:00:00 11.6 21 Sudoeste 37 Sudoeste 0 -- -- 71
2018-10-14 13:00:00 11 21 Oeste 32 Oeste 0 -- -- 74
2018-10-14 12:00:00 9.9 22 Oeste 42 Oeste 0 -- -- 79
2018-10-14 11:00:00 9.2 27 Oeste 38 Oeste 0 -- -- 80
2018-10-14 10:00:00 10 11 Sudoeste 28 Sudoeste 0 -- -- 90
2018-10-14 09:00:00 10 26 Oeste 37 Sudoeste 0 -- -- 89
2018-10-14 08:00:00 10.8 28 Sudoeste 38 Oeste 3.2 -- -- 95
2018-10-14 07:00:00 12.3 21 Sudoeste 34 Sudoeste 0 -- -- 84
2018-10-14 06:00:00 13.6 19 Sudoeste 58 Sudeste 0 -- -- 86
2018-10-14 05:00:00 14.9 37 Sudeste 58 Sudeste 0.6 -- -- 81
2018-10-14 04:00:00 14.4 34 Sudoeste 61 Sudoeste 1.4 -- -- 86
2018-10-14 03:00:00 20.6 24 Sur 35 Sur 0 -- -- 48
2018-10-14 02:00:00 18.7 17 Sudeste 35 Este 0 -- -- 59
2018-10-14 01:00:00 19.9 28 Este 37 Sudeste 0 -- -- 57
2018-10-14 00:00:00 19.2 21 Sudeste 28 Sudeste 0 -- -- 59
2018-10-13 23:00:00 17.2 16 Sudeste 24 Este 0 -- -- 64
2018-10-13 22:00:00 19.4 19 Sudeste 24 Sudeste 0 -- -- 55
2018-10-13 21:00:00 20.6 19 Sudeste 34 Sudeste 0 -- -- 49
2018-10-13 20:00:00 22.6 26 Sudeste 39 Sudeste 0 -- -- 41
2018-10-13 19:00:00 24.6 26 Sudeste 38 Sudeste 0 -- -- 42
2018-10-13 18:00:00 24.9 24 Sudeste 36 Sudeste 0 -- -- 44
2018-10-13 17:00:00 26.8 22 Sudeste 42 Sudeste 0 -- -- 38
2018-10-13 16:00:00 27.1 15 Sudeste 23 Sudeste 0 -- -- 36
2018-10-13 15:00:00 25.9 7 Este 21 Este 0 -- -- 40
2018-10-13 14:00:00 24.5 10 Este 18 Este 0 -- -- 43
2018-10-13 13:00:00 22.5 6 Norte 14 Nordeste 0 -- -- 49
2018-10-13 12:00:00 21.4 2 Sudeste 9 Este 0 -- -- 52
2018-10-13 11:00:00 16.1 2 Sur 7 Sudeste 0 -- -- 69
2018-10-13 10:00:00 13.5 4 Sudeste 11 Este 0 -- -- 78
2018-10-13 09:00:00 10.6 6 Sur 14 Sudeste 0 -- -- 88
2018-10-13 08:00:00 9 5 Sur 10 Sudeste 0 -- -- 92
2018-10-13 07:00:00 9.1 0 Calma 10 Sudeste 0 -- -- 89
2018-10-13 06:00:00 9.2 6 Sur 15 Sudeste 0 -- -- 89
2018-10-13 05:00:00 11 13 Sudeste 17 Sudeste 0 -- -- 87
2018-10-13 04:00:00 10.8 7 Sudeste 13 Sudeste 0 -- -- 87
2018-10-13 03:00:00 11 6 Sudeste 14 Sudeste 0 -- -- 85
2018-10-13 02:00:00 11.8 10 Sur 13 Sudeste 0 -- -- 83
2018-10-13 01:00:00 12.1 6 Sudeste 15 Sudeste 0 -- -- 83
2018-10-13 00:00:00 13.2 10 Sudeste 15 Sur 0 -- -- 79
2018-10-12 23:00:00 16.1 12 Sur 26 Sudoeste 0 -- -- 69
2018-10-12 22:00:00 16.4 8 Sur 19 Sudoeste 0 -- -- 64
2018-10-12 21:00:00 17.7 10 Sudoeste 15 Sur 0 -- -- 56
2018-10-12 20:00:00 17.5 11 Sudoeste 17 Sudoeste 0 -- -- 56
2018-10-12 19:00:00 20.7 13 Sudoeste 24 Sudoeste 0 -- -- 46
2018-10-12 18:00:00 22.1 19 Sudoeste 32 Sudoeste 0 -- -- 39
2018-10-12 17:00:00 23.3 21 Sudoeste 30 Sudoeste 0 -- -- 37
2018-10-12 16:00:00 23.5 14 Sur 24 Sur 0 -- -- 44
2018-10-12 15:00:00 23 13 Sur 27 Sudoeste 0 -- -- 47
2018-10-12 14:00:00 22 15 Sur 32 Sudoeste 0 -- -- 50
2018-10-12 13:00:00 20.7 21 Sudoeste 33 Sudoeste 0 -- -- 53
2018-10-12 12:00:00 18.6 23 Sudoeste 32 Sudoeste 0 -- -- 60
2018-10-12 11:00:00 16.4 15 Sudoeste 22 Sur 0 -- -- 72
2018-10-12 10:00:00 14.6 12 Sur 17 Sur 0 -- -- 82
2018-10-12 09:00:00 9.5 7 Sudeste 15 Sur 0 -- -- 93
2018-10-12 08:00:00 8.6 5 Sudeste 10 Sudeste 0 -- -- 96
2018-10-12 07:00:00 9.9 7 Sur 9 Sur 0 -- -- 97
2018-10-12 06:00:00 10.1 3 Sudeste 8 Sudeste 0 -- -- 95
2018-10-12 05:00:00 11.1 6 Sudeste 12 Sudeste 0 -- -- 94
2018-10-12 04:00:00 13.1 9 Sur 15 Sur 0 -- -- 90
2018-10-12 03:00:00 13.5 12 Sur 14 Sur 0 -- -- 90
2018-10-12 02:00:00 12.6 10 Sur 13 Sur 0 -- -- 91
2018-10-12 01:00:00 14.2 10 Sur 20 Sur 0 -- -- 85
2018-10-12 00:00:00 15.7 16 Sudoeste 22 Sur 0 -- -- 84
2018-10-11 23:00:00 14.8 11 Sudoeste 22 Sudoeste 0 -- -- 85
2018-10-11 22:00:00 16.2 15 Sudoeste 37 Sudoeste 0 -- -- 79
2018-10-11 21:00:00 17.6 28 Sudoeste 37 Sudoeste 0 -- -- 71
2018-10-11 20:00:00 17.8 22 Sudoeste 41 Sudoeste 0 -- -- 69
2018-10-11 19:00:00 18.7 29 Sudoeste 50 Sudoeste 0 -- -- 67
2018-10-11 18:00:00 20.8 31 Sudoeste 52 Sudoeste 0 -- -- 60
2018-10-11 17:00:00 21.2 27 Sudoeste 44 Sudoeste 0 -- -- 57
2018-10-11 16:00:00 20.6 25 Sudoeste 39 Sudoeste 0 -- -- 59
2018-10-11 15:00:00 20.3 28 Sudoeste 44 Sudoeste 0 -- -- 59
2018-10-11 14:00:00 19.7 30 Sudoeste 49 Sudoeste 0 -- -- 61
2018-10-11 13:00:00 19.7 30 Sudoeste 42 Sudoeste 0 -- -- 63
2018-10-11 12:00:00 18.5 29 Sudoeste 39 Sudoeste 0 -- -- 69
2018-10-11 11:00:00 17.5 20 Sur 34 Sur 0 -- -- 72
2018-10-11 10:00:00 15.5 12 Sur 18 Sur 0 -- -- 79
2018-10-11 09:00:00 14.7 10 Sur 18 Sur 0 -- -- 85
2018-10-11 08:00:00 14.7 13 Sur 22 Sur 0 -- -- 80
2018-10-11 07:00:00 14.3 11 Sur 14 Sur 0 -- -- 78
2018-10-11 06:00:00 12.9 3 Sudoeste 16 Sudoeste 0 -- -- 72
2018-10-11 05:00:00 11.8 10 Sudeste 13 Sudeste 0 -- -- 78
2018-10-11 04:00:00 9.7 10 Este 14 Sur 0 -- -- 81
2018-10-11 03:00:00 8.4 5 Sur 11 Sur 0 -- -- 80
2018-10-11 02:00:00 9.2 6 Sudeste 12 Sudeste 0 -- -- 77
2018-10-11 01:00:00 10.9 9 Sudeste 18 Sudeste 0 -- -- 74
2018-10-11 00:00:00 12 14 Sudeste 19 Sudeste 0 -- -- 69
2018-10-10 23:00:00 11 9 Sudeste 15 Sudeste 0 -- -- 67
2018-10-10 22:00:00 12.8 9 Sur 13 Sudoeste 0 -- -- 64
2018-10-10 21:00:00 15 8 Sudoeste 21 Sudoeste 0 -- -- 58
2018-10-10 20:00:00 17.2 17 Sudoeste 31 Sudoeste 0 -- -- 52
2018-10-10 19:00:00 20.1 19 Sudoeste 35 Sudoeste 0 -- -- 43
2018-10-10 18:00:00 21.6 23 Sudoeste 42 Sudoeste 0 -- -- 35
2018-10-10 17:00:00 21.8 30 Sudoeste 46 Sudoeste 0 -- -- 34
2018-10-10 16:00:00 22.2 25 Sur 44 Sudoeste 0 -- -- 34
2018-10-10 15:00:00 21.6 24 Sudoeste 37 Sudoeste 0 -- -- 34
2018-10-10 14:00:00 20.2 23 Sudoeste 38 Sudoeste 0 -- -- 37
2018-10-10 13:00:00 19.8 10 Sudoeste 23 Sur 0 -- -- 41
2018-10-10 12:00:00 18.6 13 Sur 22 Sur 0 -- -- 46
2018-10-10 11:00:00 15.6 14 Sur 19 Sudeste 0 -- -- 62
2018-10-10 10:00:00 13.7 13 Sur 21 Sur 0 -- -- 68
2018-10-10 09:00:00 9.6 5 Sudoeste 10 Sudoeste 0 -- -- 80
2018-10-10 08:00:00 9.8 4 Sur 14 Sudeste 0 -- -- 78
2018-10-10 07:00:00 11.2 3 Sudoeste 18 Sudeste 0 -- -- 75
2018-10-10 06:00:00 11.7 13 Sudeste 18 Sudeste 0 -- -- 75
2018-10-10 05:00:00 9.4 4 Este 14 Sudeste 0 -- -- 81
2018-10-10 04:00:00 10.1 11 Sudeste 17 Este 0 -- -- 76
2018-10-10 03:00:00 10.5 12 Este 22 Este 0 -- -- 69
2018-10-10 02:00:00 10.8 14 Este 20 Este 0 -- -- 65
2018-10-10 01:00:00 11.5 9 Este 22 Este 0 -- -- 62
2018-10-10 00:00:00 13.3 19 Este 28 Este 0 -- -- 56
2018-10-09 23:00:00 12.9 14 Este 30 Este 0 -- -- 57
2018-10-09 22:00:00 13.5 23 Nordeste 39 Este 0 -- -- 55
2018-10-09 21:00:00 14.5 27 Este 45 Este 0 -- -- 52
2018-10-09 20:00:00 17.9 13 Este 32 Este 0 -- -- 37
2018-10-09 19:00:00 19.2 13 Sudeste 25 Este 0 -- -- 35
2018-10-09 18:00:00 21 16 Este 23 Este 0 -- -- 31
2018-10-09 17:00:00 21.7 11 Este 21 Nordeste 0 -- -- 31
2018-10-09 16:00:00 19.9 11 Este 21 Nordeste 0 -- -- 35
2018-10-09 15:00:00 20.4 6 Nordeste 23 Nordeste 0 -- -- 35
2018-10-09 14:00:00 19.3 9 Este 27 Nordeste 0 -- -- 39
2018-10-09 13:00:00 18.2 12 Nordeste 22 Nordeste 0 -- -- 42
2018-10-09 12:00:00 16.3 12 Este 23 Este 0 -- -- 49
2018-10-09 11:00:00 14.4 12 Nordeste 17 Este 0 -- -- 54
2018-10-09 10:00:00 9.2 6 Nordeste 9 Este 0 -- -- 69
2018-10-09 09:00:00 3.7 4 Nordeste 6 Norte 0 -- -- 82
2018-10-09 08:00:00 1.5 3 Norte 5 Nordeste 0 -- -- 89
2018-10-09 07:00:00 1.8 4 Nordeste 7 Este 0 -- -- 85
2018-10-09 06:00:00 2.1 0 Calma 5 Este 0 -- -- 86
2018-10-09 05:00:00 2.6 0 Calma 4 Nordeste 0 -- -- 89
2018-10-09 04:00:00 4.2 2 Norte 9 Nordeste 0 -- -- 87
2018-10-09 03:00:00 4.8 6 Norte 10 Norte 0 -- -- 88
2018-10-09 02:00:00 5 6 Este 8 Este 0 -- -- 82
2018-10-09 01:00:00 6.1 0 Calma 6 Norte 0 -- -- 77
2018-10-09 00:00:00 8.7 4 Norte 13 Norte 0 -- -- 70
2018-10-08 23:00:00 10.9 10 Norte 13 Norte 0 -- -- 64
2018-10-08 22:00:00 11.5 9 Norte 13 Norte 0 -- -- 60
2018-10-08 21:00:00 12.3 6 Norte 18 Norte 0 -- -- 56
2018-10-08 20:00:00 15.1 10 Norte 25 Norte 0 -- -- 48
2018-10-08 19:00:00 18.2 12 Norte 24 Nordeste 0 -- -- 40
2018-10-08 18:00:00 18.8 15 Nordeste 32 Nordeste 0 -- -- 39
2018-10-08 17:00:00 19 13 Nordeste 31 Nordeste 0 -- -- 40
2018-10-08 16:00:00 18.7 17 Norte 30 Norte 0 -- -- 41
2018-10-08 15:00:00 18.7 17 Nordeste 32 Nordeste 0 -- -- 43
2018-10-08 14:00:00 16.6 17 Nordeste 28 Norte 0 -- -- 50
2018-10-08 13:00:00 14.9 15 Nordeste 24 Nordeste 0 -- -- 56
2018-10-08 12:00:00 13.3 12 Nordeste 20 Nordeste 0 -- -- 63
2018-10-08 11:00:00 11.9 4 Nordeste 9 Norte 0 -- -- 62
2018-10-08 10:00:00 10.3 2 Norte 5 Norte 0 -- -- 64
2018-10-08 09:00:00 5 0 Calma 5 Noroeste 0 -- -- 88
2018-10-08 08:00:00 1.7 3 Noroeste 5 Oeste 0 -- -- 93
2018-10-08 07:00:00 2.1 3 Noroeste 6 Noroeste 0 -- -- 89
2018-10-08 06:00:00 3.7 3 Norte 7 Este 0 -- -- 86
2018-10-08 05:00:00 4.3 5 Este 17 Este 0 -- -- 86
2018-10-08 04:00:00 4 10 Este 13 Norte 0 -- -- 86
2018-10-08 03:00:00 6.8 8 Nordeste 15 Nordeste 0 -- -- 78
2018-10-08 02:00:00 5.3 6 Nordeste 12 Nordeste 0 -- -- 79
2018-10-08 01:00:00 6.8 9 Nordeste 16 Nordeste 0 -- -- 73
2018-10-08 00:00:00 8.1 9 Nordeste 19 Nordeste 0 -- -- 67
2018-10-07 23:00:00 9 11 Nordeste 17 Nordeste 0 -- -- 62
2018-10-07 22:00:00 9.9 10 Nordeste 24 Nordeste 0 -- -- 56
2018-10-07 21:00:00 11.3 9 Nordeste 15 Nordeste 0 -- -- 46
2018-10-07 20:00:00 14.3 10 Nordeste 15 Nordeste 0 -- -- 39
2018-10-07 19:00:00 16.8 12 Norte 23 Norte 0 -- -- 35
2018-10-07 18:00:00 17.3 16 Norte 28 Nordeste 0 -- -- 33
2018-10-07 17:00:00 17.2 15 Norte 30 Nordeste 0 -- -- 34
2018-10-07 16:00:00 17.4 15 Nordeste 27 Norte 0 -- -- 35
2018-10-07 15:00:00 16.5 16 Norte 29 Norte 0 -- -- 37
2018-10-07 14:00:00 15.8 16 Nordeste 38 Nordeste 0 -- -- 39
2018-10-07 13:00:00 13.9 12 Nordeste 27 Nordeste 0 -- -- 46
2018-10-07 12:00:00 12.7 10 Nordeste 17 Nordeste 0 -- -- 52
2018-10-07 11:00:00 10.5 11 Nordeste 16 Nordeste 0 -- -- 59
2018-10-07 10:00:00 8.6 8 Norte 12 Norte 0 -- -- 64
2018-10-07 09:00:00 4.9 0 Calma 9 Norte 0 -- -- 78
2018-10-07 08:00:00 3.5 5 Norte 13 Noroeste 0 -- -- 84
2018-10-07 07:00:00 3.7 9 Noroeste 13 Noroeste 0 -- -- 80
2018-10-07 06:00:00 5.5 10 Noroeste 14 Noroeste 0 -- -- 74
2018-10-07 05:00:00 8.7 12 Noroeste 20 Noroeste 0 -- -- 64
2018-10-07 04:00:00 9.9 17 Noroeste 24 Noroeste 0 -- -- 59
2018-10-07 03:00:00 11.1 15 Noroeste 21 Noroeste 0 -- -- 56
2018-10-07 02:00:00 11.8 9 Noroeste 15 Noroeste 0 -- -- 53
2018-10-07 01:00:00 11.2 4 Oeste 9 Oeste 0 -- -- 60
2018-10-07 00:00:00 10.2 6 Noroeste 17 Noroeste 0 -- -- 64
2018-10-06 23:00:00 11.9 12 Noroeste 26 Noroeste 0 -- -- 60
2018-10-06 22:00:00 13.5 15 Noroeste 39 Noroeste 0 -- -- 58
2018-10-06 21:00:00 16.1 31 Noroeste 48 Noroeste 0 -- -- 54
2018-10-06 20:00:00 20.6 23 Noroeste 46 Oeste 0 -- -- 40
2018-10-06 19:00:00 23.9 35 Oeste 51 Oeste 0 -- -- 30
2018-10-06 18:00:00 24.3 31 Oeste 56 Sudoeste 0 -- -- 27
2018-10-06 17:00:00 25 33 Sudoeste 54 Sudoeste 0 -- -- 26
2018-10-06 16:00:00 25.3 36 Sudoeste 57 Sudoeste 0 -- -- 25
2018-10-06 15:00:00 26.9 31 Sudoeste 51 Sudoeste 0 -- -- 23
2018-10-06 14:00:00 26 22 Sudoeste 41 Sudoeste 0 -- -- 26
2018-10-06 13:00:00 25.2 24 Sudoeste 37 Sudoeste 0 -- -- 26
2018-10-06 12:00:00 24 19 Sudoeste 25 Sudoeste 0 -- -- 28
2018-10-06 11:00:00 21.5 10 Sur 14 Sur 0 -- -- 34
2018-10-06 10:00:00 15 6 Sur 9 Sur 0 -- -- 45
2018-10-06 09:00:00 11.4 5 Sudeste 7 Sudeste 0 -- -- 54
2018-10-06 08:00:00 8.4 2 Sudeste 6 Sur 0 -- -- 61
2018-10-06 07:00:00 11.1 6 Sur 8 Sur 0 -- -- 53
2018-10-06 06:00:00 10.6 4 Sur 10 Sur 0 -- -- 54
2018-10-06 05:00:00 11.4 5 Sur 15 Sudoeste 0 -- -- 53
2018-10-06 04:00:00 12.7 10 Sudoeste 15 Sudoeste 0 -- -- 48
2018-10-06 03:00:00 11.1 9 Sudoeste 14 Sudoeste 0 -- -- 53
2018-10-06 02:00:00 12.6 12 Sudoeste 19 Sudoeste 0 -- -- 48
2018-10-06 01:00:00 14.5 16 Sudoeste 21 Sudoeste 0 -- -- 43
2018-10-06 00:00:00 14.6 12 Sudoeste 15 Sudoeste 0 -- -- 42
2018-10-05 23:00:00 16.1 15 Sudoeste 18 Sudoeste 0 -- -- 39
2018-10-05 22:00:00 17.5 10 Sudoeste 14 Sudoeste 0 -- -- 35
2018-10-05 21:00:00 17.9 5 Oeste 10 Noroeste 0 -- -- 36
2018-10-05 20:00:00 22.8 3 Sudoeste 11 Sudoeste 0 -- -- 27
2018-10-05 19:00:00 27 9 Sudoeste 17 Oeste 0 -- -- 22
2018-10-05 18:00:00 28 12 Sudoeste 23 Sudoeste 0 -- -- 19
2018-10-05 17:00:00 28.7 7 Sudoeste 24 Sudoeste 0 -- -- 19
2018-10-05 16:00:00 28.7 12 Oeste 31 Oeste 0 -- -- 19
2018-10-05 15:00:00 28.9 5 Este 13 Noroeste 0 -- -- 17
2018-10-05 14:00:00 27.7 5 Oeste 10 Noroeste 0 -- -- 19
2018-10-05 13:00:00 25.9 4 Oeste 14 Oeste 0 -- -- 22
2018-10-05 12:00:00 24 4 Sudoeste 9 Oeste 0 -- -- 26
2018-10-05 11:00:00 19 7 Sudoeste 12 Sudoeste 0 -- -- 33
2018-10-05 10:00:00 15.6 0 Calma 8 Sur 0 -- -- 32
2018-10-05 09:00:00 8.4 8 Sur 8 Sudeste 0 -- -- 44
2018-10-05 08:00:00 5.4 5 Sur 8 Sur 0 -- -- 53
2018-10-05 07:00:00 5.9 5 Sudeste 9 Sudeste 0 -- -- 51
2018-10-05 06:00:00 5.1 4 Sudeste 5 Sudeste 0 -- -- 52
2018-10-05 05:00:00 5.9 5 Sudeste 8 Sudeste 0 -- -- 48
2018-10-05 04:00:00 5.9 4 Este 6 Este 0 -- -- 48
2018-10-05 03:00:00 6.3 0 Calma 3 Norte 0 -- -- 47
2018-10-05 02:00:00 8.4 3 Sur 8 Sur 0 -- -- 43
2018-10-05 01:00:00 8.5 3 Sur 6 Sur 0 -- -- 43
2018-10-05 00:00:00 10.4 3 Sur 4 Sur 0 -- -- 42
2018-10-04 23:00:00 11.6 3 Sur 7 Sudeste 0 -- -- 39
2018-10-04 22:00:00 12.5 3 Sudeste 6 Sur 0 -- -- 37
2018-10-04 21:00:00 15.1 3 Sur 6 Sudoeste 0 -- -- 31
2018-10-04 20:00:00 20.2 5 Sudoeste 8 Oeste 0 -- -- 25
2018-10-04 19:00:00 27.6 6 Noroeste 12 Noroeste 0 -- -- 19
2018-10-04 18:00:00 28.4 6 Noroeste 17 Noroeste 0 -- -- 19
2018-10-04 17:00:00 27.6 9 Oeste 17 Oeste 0 -- -- 17
2018-10-04 16:00:00 26.1 9 Noroeste 19 Noroeste 0 -- -- 22
2018-10-04 15:00:00 24.6 7 Noroeste 18 Noroeste 0 -- -- 26
2018-10-04 14:00:00 22.8 10 Noroeste 24 Noroeste 0 -- -- 31
2018-10-04 13:00:00 20.4 7 Noroeste 12 Noroeste 0 -- -- 37
2018-10-04 12:00:00 19.7 4 Oeste 7 Oeste 0 -- -- 41
2018-10-04 11:00:00 16.9 0 Calma 5 Noroeste 0 -- -- 49
2018-10-04 10:00:00 14.2 0 Calma 4 Sudoeste 0 -- -- 59
2018-10-04 09:00:00 7.3 3 Sur 6 Sudoeste 0 -- -- 75
2018-10-04 08:00:00 4.4 3 Sur 4 Sudoeste 0 -- -- 83
2018-10-04 07:00:00 4.9 2 Sudoeste 4 Sudeste 0 -- -- 83
2018-10-04 06:00:00 6 2 Noroeste 4 Oeste 0 -- -- 78
2018-10-04 05:00:00 7.8 3 Oeste 6 Oeste 0 -- -- 77
2018-10-04 04:00:00 7.8 3 Oeste 6 Oeste 0 -- -- 75
2018-10-04 03:00:00 8.5 4 Oeste 7 Sudoeste 0 -- -- 73
2018-10-04 02:00:00 10.1 6 Sudoeste 12 Sudeste 0 -- -- 67
2018-10-04 01:00:00 11.8 5 Nordeste 10 Norte 0 -- -- 61
2018-10-04 00:00:00 15.4 6 Norte 13 Norte 0 -- -- 50
2018-10-03 23:00:00 16.6 9 Norte 18 Norte 0 -- -- 46
2018-10-03 22:00:00 18.6 12 Norte 19 Norte 0 -- -- 41
2018-10-03 21:00:00 19.8 12 Norte 19 Noroeste 0 -- -- 38
2018-10-03 20:00:00 21.8 8 Noroeste 19 Norte 0 -- -- 35
2018-10-03 19:00:00 26.3 13 Norte 21 Norte 0 -- -- 27
2018-10-03 18:00:00 27.2 9 Norte 19 Norte 0 -- -- 26
2018-10-03 17:00:00 26.8 10 Norte 23 Norte 0 -- -- 27
2018-10-03 16:00:00 26 9 Norte 19 Norte 0 -- -- 27
2018-10-03 15:00:00 24.4 8 Norte 15 Noroeste 0 -- -- 28
2018-10-03 14:00:00 22.9 5 Noroeste 12 Norte 0 -- -- 30
2018-10-03 13:00:00 19.5 5 Norte 14 Nordeste 0 -- -- 32
2018-10-03 12:00:00 15.9 7 Norte 13 Norte 0 -- -- 39
2018-10-03 11:00:00 15 3 Noroeste 7 Noroeste 0 -- -- 41
2018-10-03 10:00:00 12.2 3 Noroeste 5 Noroeste 0 -- -- 46
2018-10-03 09:00:00 6.1 0 Calma 5 Sudoeste 0 -- -- 61
2018-10-03 08:00:00 2.7 3 Oeste 4 Oeste 0 -- -- 73
2018-10-03 07:00:00 3.2 0 Calma 2 Norte 0 -- -- 66
2018-10-03 06:00:00 3.3 0 Calma 2 Sudoeste 0 -- -- 63
2018-10-03 05:00:00 4.4 0 Calma 4 Norte 0 -- -- 61
2018-10-03 04:00:00 5.4 4 Norte 7 Norte 0 -- -- 57
2018-10-03 03:00:00 6.2 3 Noroeste 7 Oeste 0 -- -- 57
2018-10-03 02:00:00 6 3 Sudoeste 5 Sudoeste 0 -- -- 57
2018-10-03 01:00:00 7 0 Calma 5 Sur 0 -- -- 51
2018-10-03 00:00:00 9.4 2 Este 11 Nordeste 0 -- -- 46
2018-10-02 23:00:00 12.6 5 Norte 15 Norte 0 -- -- 37
2018-10-02 22:00:00 14.2 10 Norte 16 Norte 0 -- -- 33
2018-10-02 21:00:00 15.7 10 Norte 13 Norte 0 -- -- 31
2018-10-02 20:00:00 19.4 9 Norte 20 Norte 0 -- -- 26
2018-10-02 19:00:00 22.3 13 Norte 21 Norte 0 -- -- 22
2018-10-02 18:00:00 23.2 12 Norte 23 Norte 0 -- -- 21
2018-10-02 17:00:00 22.8 9 Norte 23 Nordeste 0 -- -- 23
2018-10-02 16:00:00 21.8 12 Nordeste 23 Norte -- -- -- 24
2018-10-02 15:00:00 20.5 10 Norte 26 Norte -- -- -- 26
2018-10-02 14:00:00 18.1 12 Norte 20 Norte -- -- -- 33
2018-10-02 13:00:00 15.9 9 Norte 17 Nordeste -- -- -- 40
2018-10-02 12:00:00 13.1 10 Norte 17 Norte -- -- -- 50
2018-10-02 11:00:00 10.8 10 Norte 15 Nordeste -- -- -- 60
2018-10-02 10:00:00 10.4 2 Oeste 4 Sudoeste -- -- -- 65
2018-10-02 09:00:00 4.5 0 Calma 6 Oeste -- -- -- 85
2018-10-02 08:00:00 1.5 3 Noroeste 5 Nordeste -- -- -- 89
2018-10-02 07:00:00 3 5 Nordeste 8 Norte -- -- -- 89
2018-10-02 06:00:00 5.3 8 Norte 9 Nordeste -- -- -- 82
2018-10-02 05:00:00 4.5 0 Calma 9 Norte -- -- -- 87
2018-10-02 04:00:00 6.7 8 Norte 9 Norte -- -- -- 78
2018-10-02 03:00:00 6.3 4 Sur 16 Norte -- -- -- 76
2018-10-02 02:00:00 7.7 4 Norte 14 Norte -- -- -- 74
2018-10-02 01:00:00 9 11 Norte 16 Norte -- -- -- 68
2018-10-02 00:00:00 10 8 Nordeste 19 Nordeste -- -- -- 64
2018-10-01 23:00:00 11 11 Nordeste 27 Nordeste -- -- -- 60
2018-10-01 22:00:00 12.6 16 Nordeste 24 Nordeste -- -- -- 54
2018-10-01 21:00:00 14.6 14 Nordeste 26 Nordeste -- -- -- 49
2018-10-01 20:00:00 17.5 17 Nordeste 30 Norte -- -- -- 41
2018-10-01 19:00:00 20.3 23 Norte 42 Nordeste -- -- -- 32
2018-10-01 18:00:00 21.3 20 Norte 33 Nordeste -- -- -- 29
2018-10-01 17:00:00 21.8 17 Norte 32 Norte -- -- -- 30
2018-10-01 16:00:00 21.7 19 Nordeste 35 Nordeste -- -- -- 30
2018-10-01 15:00:00 21 19 Nordeste 32 Nordeste -- -- -- 34
2018-10-01 14:00:00 19.7 17 Nordeste 31 Nordeste -- -- -- 38
2018-10-01 13:00:00 18.6 19 Norte 35 Norte -- -- -- 42
2018-10-01 12:00:00 16.8 21 Nordeste 35 Nordeste -- -- -- 49
2018-10-01 11:00:00 15.4 24 Nordeste 34 Nordeste -- -- -- 53
2018-10-01 10:00:00 14 5 Nordeste 10 Nordeste -- -- -- 59
2018-10-01 09:00:00 8.8 3 Sudoeste 4 Sudoeste -- -- -- 79
2018-10-01 08:00:00 7.7 3 Norte 9 Norte -- -- -- 82
2018-10-01 07:00:00 8.3 6 Norte 11 Norte -- -- -- 81
2018-10-01 06:00:00 8.6 8 Norte 15 Norte -- -- -- 79
2018-10-01 05:00:00 9.6 6 Norte 15 Norte -- -- -- 70
2018-10-01 04:00:00 11.6 11 Norte 19 Norte -- -- -- 64
2018-10-01 03:00:00 10.3 8 Noroeste 10 Noroeste -- -- -- 59
2018-10-01 02:00:00 12.7 9 Norte 15 Norte -- -- -- 50
2018-10-01 01:00:00 13 10 Norte 17 Norte -- -- -- 41
2018-10-01 00:00:00 16.4 10 Nordeste 29 Noroeste -- -- -- 34
2018-09-30 23:00:00 14.4 4 Sudeste 6 Sudeste -- -- -- 40
2018-09-30 22:00:00 16.2 3 Sudoeste 8 Norte -- -- -- 35
2018-09-30 21:00:00 19 9 Noroeste 11 Noroeste -- -- -- 30
2018-09-30 20:00:00 23.1 10 Noroeste 24 Noroeste -- -- -- 26
2018-09-30 19:00:00 27.2 20 Noroeste 27 Noroeste -- -- -- 27
2018-09-30 18:00:00 28.4 13 Oeste 25 Oeste -- -- -- 30
2018-09-30 17:00:00 29 11 Noroeste 25 Oeste -- -- -- 29
2018-09-30 16:00:00 28.5 9 Noroeste 18 Noroeste -- -- -- 29
2018-09-30 15:00:00 28 10 Norte 23 Nordeste -- -- -- 30
2018-09-30 14:00:00 26.3 8 Nordeste 18 Norte -- -- -- 31
2018-09-30 13:00:00 24.5 7 Norte 14 Norte -- -- -- 36
2018-09-30 12:00:00 22 5 Norte 10 Norte -- -- -- 42
2018-09-30 11:00:00 20.2 3 Sudeste 6 Este -- -- -- 46
2018-09-30 10:00:00 17.6 2 Sudeste 4 Sudeste -- -- -- 52
2018-09-30 09:00:00 10.4 2 Sur 4 Sudeste -- -- -- 73
2018-09-30 08:00:00 8.1 4 Sudeste 5 Sudeste -- -- -- 78
2018-09-30 07:00:00 8.6 0 Calma 2 Sudeste -- -- -- 77
2018-09-30 06:00:00 9 0 Calma 2 Sur -- -- -- 74
2018-09-30 05:00:00 9.5 0 Calma 7 Noroeste -- -- -- 72
2018-09-30 04:00:00 10.7 7 Noroeste 9 Noroeste -- -- -- 68
2018-09-30 03:00:00 12 0 Calma 8 Sur -- -- -- 68
2018-09-30 02:00:00 13.1 3 Sur 5 Norte -- -- -- 63
2018-09-30 01:00:00 14.8 3 Norte 9 Norte -- -- -- 58
2018-09-30 00:00:00 15.5 6 Este 8 Este -- -- -- 54
2018-09-29 23:00:00 18.7 7 Nordeste 10 Nordeste -- -- -- 45
2018-09-29 22:00:00 18.6 0 Calma 4 Noroeste -- -- -- 44
2018-09-29 21:00:00 19.8 4 Oeste 9 Noroeste -- -- -- 42
2018-09-29 20:00:00 24.8 6 Noroeste 10 Noroeste -- -- -- 35
2018-09-29 19:00:00 28.9 6 Noroeste 14 Noroeste -- -- -- 28
2018-09-29 18:00:00 28.9 8 Nordeste 14 Este -- -- -- 26
2018-09-29 17:00:00 29 9 Norte 17 Norte -- -- -- 26
2018-09-29 16:00:00 28.4 8 Norte 17 Noroeste -- -- -- 27
2018-09-29 15:00:00 28 6 Norte 23 Norte -- -- -- 30
2018-09-29 14:00:00 26.6 6 Noroeste 16 Norte -- -- -- 32
2018-09-29 13:00:00 24.2 8 Norte 19 Norte -- -- -- 38
2018-09-29 12:00:00 22.4 6 Nordeste 12 Norte -- -- -- 41
2018-09-29 11:00:00 19.1 5 Norte 9 Norte -- -- -- 51
2018-09-29 10:00:00 16.3 3 Nordeste 5 Nordeste -- -- -- 59
2018-09-29 09:00:00 10.6 3 Sudeste 4 Sudeste -- -- -- 78
2018-09-29 08:00:00 8.3 0 Calma 4 Noroeste -- -- -- 87
2018-09-29 07:00:00 8.6 3 Noroeste 8 Noroeste -- -- -- 81
2018-09-29 06:00:00 9.1 0 Calma 5 Noroeste -- -- -- 75
2018-09-29 05:00:00 10.1 4 Noroeste 5 Noroeste -- -- -- 75
2018-09-29 04:00:00 10.9 3 Noroeste 6 Norte -- -- -- 71
2018-09-29 03:00:00 11.6 2 Noroeste 5 Sudoeste -- -- -- 68
2018-09-29 02:00:00 13.1 0 Calma 9 Sur -- -- -- 63
2018-09-29 01:00:00 13.4 2 Sudoeste 6 Norte -- -- -- 58
2018-09-29 00:00:00 15.9 0 Calma 10 Nordeste -- -- -- 49
2018-09-28 23:00:00 18.7 7 Norte 13 Norte -- -- -- 44
2018-09-28 22:00:00 20.5 12 Norte 15 Norte -- -- -- 38
2018-09-28 21:00:00 20.5 10 Noroeste 16 Noroeste -- -- -- 37
2018-09-28 20:00:00 25.5 9 Norte 18 Norte -- -- -- 30
2018-09-28 19:00:00 28.9 5 Norte 18 Noroeste -- -- -- 26
2018-09-28 18:00:00 29.1 10 Norte 26 Norte -- -- -- 26
2018-09-28 17:00:00 29.5 8 Norte 23 Norte -- -- -- 26
2018-09-28 16:00:00 29.2 10 Nordeste 23 Nordeste -- -- -- 27
2018-09-28 15:00:00 29.1 6 Noroeste 15 Nordeste -- -- -- 30
2018-09-28 14:00:00 27.7 4 Noroeste 14 Nordeste -- -- -- 35
2018-09-28 13:00:00 25.7 5 Noroeste 12 Noroeste -- -- -- 40
2018-09-28 12:00:00 23.5 3 Oeste 8 Oeste -- -- -- 45
2018-09-28 11:00:00 21.3 4 Este 8 Sur -- -- -- 51
2018-09-28 10:00:00 17.1 4 Sur 6 Sudoeste -- -- -- 63
2018-09-28 09:00:00 13 2 Sudeste 6 Sudoeste -- -- -- 76
2018-09-28 08:00:00 10.6 0 Calma 14 Sudoeste -- -- -- 82
2018-09-28 07:00:00 11.3 12 Sudoeste 13 Sudoeste -- -- -- 81
2018-09-28 06:00:00 11 2 Sur 8 Sudoeste -- -- -- 80
2018-09-28 05:00:00 12 6 Sudoeste 9 Sur -- -- -- 78
2018-09-28 04:00:00 12.5 3 Sudeste 7 Sudoeste -- -- -- 75
2018-09-28 03:00:00 14.1 5 Sudoeste 12 Oeste -- -- -- 70
2018-09-28 02:00:00 14.9 9 Sudoeste 15 Oeste -- -- -- 68
2018-09-28 01:00:00 17.6 12 Oeste 17 Oeste -- -- -- 60
2018-09-28 00:00:00 17 4 Sur 15 Sudeste -- -- -- 59
2018-09-27 23:00:00 16.9 2 Oeste 5 Norte -- -- -- 59
2018-09-27 22:00:00 18.8 3 Norte 9 Nordeste -- -- -- 53
2018-09-27 21:00:00 23 8 Nordeste 12 Nordeste -- -- -- 44
2018-09-27 20:00:00 25.8 7 Norte 13 Norte -- -- -- 38
2018-09-27 19:00:00 27.6 11 Norte 21 Norte -- -- -- 35
2018-09-27 18:00:00 29.7 8 Noroeste 21 Norte -- -- -- 32
2018-09-27 17:00:00 28.8 7 Norte 22 Sudoeste -- -- -- 36
2018-09-27 16:00:00 28.5 13 Norte 22 Noroeste -- -- -- 38
2018-09-27 15:00:00 28.5 7 Norte 19 Oeste -- -- -- 38
2018-09-27 14:00:00 28.1 10 Noroeste 23 Oeste -- -- -- 40
2018-09-27 13:00:00 27.1 5 Nordeste 14 Nordeste -- -- -- 40
2018-09-27 12:00:00 26.9 4 Noroeste 9 Nordeste -- -- -- 43
2018-09-27 11:00:00 23.9 4 Sur 22 Sur -- -- -- 51
2018-09-27 10:00:00 20.2 10 Sudeste 17 Sur -- -- -- 62
2018-09-27 09:00:00 17.2 13 Sudeste 25 Sudeste -- -- -- 73
2018-09-27 08:00:00 16.3 19 Sudeste 28 Sudeste -- -- -- 76
2018-09-27 07:00:00 16.9 20 Sudeste 29 Sudeste -- -- -- 74
2018-09-27 06:00:00 17.5 23 Sudeste 36 Sudeste -- -- -- 72
2018-09-27 05:00:00 17.5 24 Sudeste 40 Sudeste -- -- -- 72
2018-09-27 04:00:00 18.1 27 Sudeste 36 Sudeste -- -- -- 71
2018-09-27 03:00:00 18.2 20 Sudeste 30 Sudeste -- -- -- 71
2018-09-27 02:00:00 18.6 18 Sudeste 27 Sudeste -- -- -- 70
2018-09-27 01:00:00 18.3 14 Sudeste 19 Sur -- -- -- 72
2018-09-27 00:00:00 16.8 11 Sudeste 15 Este -- -- -- 77
2018-09-26 23:00:00 19.4 9 Sur 16 Sudeste -- -- -- 69
2018-09-26 22:00:00 20.5 9 Sudeste 14 Sur -- -- -- 63
2018-09-26 21:00:00 22.3 12 Sudeste 17 Sudeste -- -- -- 56
2018-09-26 20:00:00 23.7 14 Oeste 24 Sudeste -- -- -- 47
2018-09-26 19:00:00 26.6 22 Sudeste 34 Sudeste -- -- -- 41
2018-09-26 18:00:00 27.1 24 Sudeste 40 Sudeste -- -- -- 43
2018-09-26 17:00:00 28 30 Sudeste 46 Sudeste -- -- -- 41
2018-09-26 16:00:00 28.1 31 Sudeste 43 Sudeste -- -- -- 41
2018-09-26 15:00:00 27.7 33 Sudeste 43 Sudeste -- -- -- 44
2018-09-26 14:00:00 28.2 26 Sudeste 36 Sudeste -- -- -- 42
2018-09-26 13:00:00 27.2 26 Sudeste 40 Sudeste -- -- -- 45
2018-09-26 12:00:00 25.7 26 Sudeste 35 Sudeste -- -- -- 51
2018-09-26 11:00:00 21.6 6 Sudeste 10 Sudeste -- -- -- 50
2018-09-26 10:00:00 16.7 3 Noroeste 8 Oeste -- -- -- 49
2018-09-26 09:00:00 12.3 3 Este 8 Norte -- -- -- 57
2018-09-26 08:00:00 9.4 4 Noroeste 8 Nordeste -- -- -- 65
2018-09-26 07:00:00 10.6 9 Nordeste 17 Nordeste -- -- -- 59
2018-09-26 06:00:00 10 8 Norte 15 Norte -- -- -- 62
2018-09-26 05:00:00 10.2 9 Norte 13 Norte -- -- -- 61
2018-09-26 04:00:00 11.1 8 Norte 13 Norte -- -- -- 58
2018-09-26 03:00:00 11.2 7 Nordeste 13 Nordeste -- -- -- 53
2018-09-26 02:00:00 11.6 0 Calma 10 Norte -- -- -- 49
2018-09-26 01:00:00 13.9 5 Nordeste 9 Norte -- -- -- 43
2018-09-26 00:00:00 13.4 4 Nordeste 8 Nordeste -- -- -- 42
2018-09-25 23:00:00 14.8 6 Nordeste 15 Nordeste -- -- -- 39
2018-09-25 22:00:00 18.7 11 Norte 14 Norte -- -- -- 31
2018-09-25 21:00:00 20 9 Norte 17 Norte -- -- -- 34
2018-09-25 20:00:00 23.8 9 Norte 15 Noroeste -- -- -- 32
2018-09-25 19:00:00 26.7 8 Norte 14 Norte -- -- -- 33
2018-09-25 18:00:00 28.8 5 Oeste 17 Norte -- -- -- 29
2018-09-25 17:00:00 26.5 10 Norte 20 Norte -- -- -- 30
2018-09-25 16:00:00 25.1 13 Norte 20 Norte -- -- -- 28
2018-09-25 15:00:00 23.6 13 Norte 22 Norte -- -- -- 29
2018-09-25 14:00:00 21.5 10 Norte 18 Norte -- -- -- 32
2018-09-25 13:00:00 18.9 10 Norte 15 Noroeste -- -- -- 38
2018-09-25 12:00:00 15.8 5 Norte 14 Norte -- -- -- 45
2018-09-25 11:00:00 13.8 6 Norte 12 Norte -- -- -- 49
2018-09-25 10:00:00 11.3 8 Nordeste 13 Nordeste -- -- -- 54
2018-09-25 09:00:00 8.3 8 Norte 11 Norte -- -- -- 55
2018-09-25 08:00:00 6.3 6 Norte 9 Norte -- -- -- 58
2018-09-25 07:00:00 6.7 5 Norte 9 Norte -- -- -- 59
2018-09-25 06:00:00 7.3 5 Norte 10 Norte -- -- -- 57
2018-09-25 05:00:00 7.9 6 Norte 14 Norte -- -- -- 55
2018-09-25 04:00:00 8.5 6 Norte 10 Norte -- -- -- 58
2018-09-25 03:00:00 10 7 Norte 12 Norte -- -- -- 58
2018-09-25 02:00:00 11.1 8 Norte 13 Nordeste -- -- -- 57
2018-09-25 01:00:00 12.3 10 Norte 16 Norte -- -- -- 57
2018-09-25 00:00:00 14 10 Norte 16 Norte -- -- -- 54
2018-09-24 23:00:00 15.6 10 Norte 22 Norte -- -- -- 51
2018-09-24 22:00:00 17.8 17 Norte 28 Norte -- -- -- 48
2018-09-24 21:00:00 20.3 19 Norte 28 Norte -- -- -- 45
2018-09-24 20:00:00 23.4 22 Norte 31 Norte -- -- -- 39
2018-09-24 19:00:00 26.6 19 Norte 28 Norte -- -- -- 36
2018-09-24 18:00:00 27.7 17 Norte 32 Norte -- -- -- 35
2018-09-24 17:00:00 28.4 17 Norte 28 Norte -- -- -- 35
2018-09-24 16:00:00 27.9 15 Norte 26 Norte -- -- -- 38
2018-09-24 15:00:00 27.5 13 Norte 31 Norte -- -- -- 40
2018-09-24 14:00:00 26.2 15 Nordeste 24 Norte -- -- -- 46
2018-09-24 13:00:00 24.9 14 Nordeste 24 Nordeste -- -- -- 49
2018-09-24 12:00:00 22.9 11 Norte 23 Norte -- -- -- 56
2018-09-24 11:00:00 21 9 Nordeste 16 Nordeste -- -- -- 61
2018-09-24 10:00:00 21.3 3 Este 5 Este -- -- -- 59
2018-09-24 09:00:00 15.7 0 Calma 6 Noroeste -- -- -- 76
2018-09-24 08:00:00 11.5 5 Oeste 6 Oeste -- -- -- 88
2018-09-24 07:00:00 12.7 0 Calma 9 Norte -- -- -- 82
2018-09-24 06:00:00 14.1 5 Norte 9 Norte -- -- -- 81
2018-09-24 05:00:00 13.9 3 Noroeste 8 Norte -- -- -- 79
2018-09-24 04:00:00 14 4 Noroeste 8 Norte -- -- -- 75
2018-09-24 03:00:00 13.7 4 Oeste 9 Nordeste -- -- -- 59
2018-09-24 02:00:00 15.4 4 Norte 10 Nordeste -- -- -- 53
2018-09-24 01:00:00 18.2 8 Nordeste 14 Norte -- -- -- 50
2018-09-24 00:00:00 17.3 2 Nordeste 4 Norte -- -- -- 41
2018-09-23 23:00:00 18 3 Sudeste 4 Sudeste -- -- -- 39
2018-09-23 22:00:00 20.4 4 Norte 7 Noroeste -- -- -- 33
2018-09-23 21:00:00 22.7 6 Noroeste 12 Noroeste -- -- -- 29
2018-09-23 20:00:00 28 9 Noroeste 19 Noroeste -- -- -- 22
2018-09-23 19:00:00 31.8 11 Noroeste 21 Oeste -- -- -- 19
2018-09-23 18:00:00 33.7 6 Noroeste 28 Oeste -- -- -- 17
2018-09-23 17:00:00 32 10 Noroeste 28 Oeste -- -- -- 21
2018-09-23 16:00:00 32.3 10 Noroeste 31 Noroeste -- -- -- 22
2018-09-23 15:00:00 31.9 13 Oeste 25 Noroeste -- -- -- 23
2018-09-23 14:00:00 31.5 8 Oeste 16 Noroeste -- -- -- 22
2018-09-23 13:00:00 30.5 5 Oeste 13 Oeste -- -- -- 23
2018-09-23 12:00:00 27.8 5 Oeste 9 Oeste -- -- -- 28
2018-09-23 11:00:00 24.3 4 Oeste 8 Sudoeste -- -- -- 34
2018-09-23 10:00:00 20.3 5 Sur 9 Sudeste -- -- -- 40
2018-09-23 09:00:00 14.4 5 Sudeste 6 Sudeste -- -- -- 53
2018-09-23 08:00:00 10.8 5 Oeste 8 Sudeste -- -- -- 61
2018-09-23 07:00:00 10.9 6 Sur 8 Sudeste -- -- -- 59
2018-09-23 06:00:00 11.6 4 Sudeste 7 Sudeste -- -- -- 57
2018-09-23 05:00:00 11.3 5 Sudeste 6 Sudeste -- -- -- 58
2018-09-23 04:00:00 11.6 0 Calma 6 Noroeste -- -- -- 55
2018-09-23 03:00:00 13.3 7 Noroeste 12 Sudeste -- -- -- 51
2018-09-23 02:00:00 16.7 12 Sur 13 Sudeste -- -- -- 43
2018-09-23 01:00:00 15.6 9 Sur 10 Sur -- -- -- 45
2018-09-23 00:00:00 16.1 5 Sur 7 Sur -- -- -- 46
2018-09-22 23:00:00 17.1 4 Sudeste 5 Sudeste -- -- -- 39
2018-09-22 22:00:00 19.3 0 Calma 7 Norte -- -- -- 33
2018-09-22 21:00:00 22.5 6 Norte 7 Norte -- -- -- 29
2018-09-22 20:00:00 27.5 6 Noroeste 23 Noroeste -- -- -- 22
2018-09-22 19:00:00 31 7 Noroeste 15 Noroeste -- -- -- 19
2018-09-22 18:00:00 32.1 6 Noroeste 19 Oeste -- -- -- 20
2018-09-22 17:00:00 31.6 14 Oeste 24 Oeste -- -- -- 21
2018-09-22 16:00:00 31.1 8 Noroeste 17 Oeste -- -- -- 24
2018-09-22 15:00:00 30.4 8 Oeste 16 Sudoeste -- -- -- 26
2018-09-22 14:00:00 29.4 5 Noroeste 10 Oeste -- -- -- 27
2018-09-22 13:00:00 26.9 4 Noroeste 11 Norte -- -- -- 31
2018-09-22 12:00:00 23.7 5 Noroeste 12 Norte -- -- -- 38
2018-09-22 11:00:00 19.5 7 Norte 10 Noroeste -- -- -- 46
2018-09-22 10:00:00 18.4 3 Noroeste 7 Noroeste -- -- -- 45
2018-09-22 09:00:00 13.1 0 Calma 6 Norte -- -- -- 59
2018-09-22 08:00:00 9.4 4 Sur 10 Sur -- -- -- 71
2018-09-22 07:00:00 10 9 Sur 10 Sur -- -- -- 70
2018-09-22 06:00:00 10.9 9 Noroeste 23 Noroeste -- -- -- 64
2018-09-22 05:00:00 11.3 4 Sur 7 Sur -- -- -- 62
2018-09-22 04:00:00 11.8 3 Sur 5 Sur -- -- -- 60
2018-09-22 03:00:00 12.2 4 Sudoeste 11 Noroeste -- -- -- 62
2018-09-22 02:00:00 13.3 4 Sur 6 Sur -- -- -- 57
2018-09-22 01:00:00 14.2 0 Calma 5 Sur -- -- -- 53
2018-09-22 00:00:00 14.7 2 Sudoeste 4 Sur -- -- -- 52
2018-09-21 23:00:00 16.5 3 Sudeste 8 Sudeste -- -- -- 46
2018-09-21 22:00:00 19.1 2 Norte 10 Noroeste -- -- -- 41
2018-09-21 21:00:00 21.7 9 Norte 14 Noroeste -- -- -- 37
2018-09-21 20:00:00 25.6 9 Noroeste 15 Oeste -- -- -- 34
2018-09-21 19:00:00 28 9 Noroeste 19 Noroeste -- -- -- 31
2018-09-21 18:00:00 29.2 13 Oeste 22 Noroeste -- -- -- 30
2018-09-21 17:00:00 29.6 14 Noroeste 24 Noroeste -- -- -- 29
2018-09-21 16:00:00 29.9 6 Noroeste 20 Oeste -- -- -- 30
2018-09-21 15:00:00 28.2 7 Norte 16 Norte -- -- -- 32
2018-09-21 14:00:00 27.2 7 Noroeste 17 Norte -- -- -- 35
2018-09-21 13:00:00 25.7 6 Oeste 15 Oeste -- -- -- 38
2018-09-21 12:00:00 24.4 3 Noroeste 9 Sudoeste -- -- -- 40
2018-09-21 11:00:00 21.9 5 Sudoeste 12 Sur -- -- -- 46
2018-09-21 10:00:00 19 8 Sur 11 Sur -- -- -- 54
2018-09-21 09:00:00 15.3 4 Sur 12 Sudoeste -- -- -- 66
2018-09-21 08:00:00 12.1 4 Sudoeste 15 Sudoeste -- -- -- 75
2018-09-21 07:00:00 12.7 10 Sudoeste 18 Sudoeste -- -- -- 71
2018-09-21 06:00:00 14.2 11 Sudoeste 15 Sudoeste -- -- -- 65
2018-09-21 05:00:00 15 12 Sudoeste 18 Sudoeste -- -- -- 62
2018-09-21 04:00:00 15.5 10 Sudoeste 15 Sudoeste -- -- -- 66
2018-09-21 03:00:00 16 6 Sudoeste 14 Sur -- -- -- 55
2018-09-21 02:00:00 16.3 9 Sur 11 Sur -- -- -- 61
2018-09-21 01:00:00 17 9 Sudoeste 15 Sudoeste -- -- -- 60
2018-09-21 00:00:00 19 9 Sudoeste 11 Sudoeste -- -- -- 56
2018-09-20 23:00:00 21 6 Oeste 11 Sudoeste -- -- -- 50
2018-09-20 22:00:00 23.1 7 Sudoeste 18 Sudoeste -- -- -- 45
2018-09-20 21:00:00 24.1 11 Sudoeste 18 Sur -- -- -- 44
2018-09-20 20:00:00 26.9 14 Sur 28 Sur -- -- -- 37
2018-09-20 19:00:00 29.6 17 Sur 32 Sur -- -- -- 30
2018-09-20 18:00:00 30.1 22 Sur 36 Sur -- -- -- 32
2018-09-20 17:00:00 29.5 15 Sudeste 35 Oeste -- -- -- 32
2018-09-20 16:00:00 31 19 Sudoeste 36 Sur -- -- -- 28
2018-09-20 15:00:00 30.9 18 Sudoeste 33 Oeste -- -- -- 29
2018-09-20 14:00:00 31.3 7 Sudoeste 27 Oeste -- -- -- 29
2018-09-20 13:00:00 29.5 8 Sudoeste 16 Sudoeste -- -- -- 31
2018-09-20 12:00:00 28.6 3 Sudoeste 8 Sur -- -- -- 31
2018-09-20 11:00:00 25.7 2 Sudoeste 7 Sur -- -- -- 37
2018-09-20 10:00:00 21.5 4 Sur 6 Sur -- -- -- 47
2018-09-20 09:00:00 16 4 Sudeste 6 Sur -- -- -- 65
2018-09-20 08:00:00 12.8 8 Sudoeste 11 Sudoeste -- -- -- 73
2018-09-20 07:00:00 13.4 7 Sudoeste 12 Sudoeste -- -- -- 71
2018-09-20 06:00:00 14.2 12 Sudoeste 13 Sudoeste -- -- -- 68
2018-09-20 05:00:00 15.5 6 Sur 19 Sudoeste -- -- -- 63
2018-09-20 04:00:00 16.4 16 Sudoeste 20 Sudoeste -- -- -- 62
2018-09-20 03:00:00 17 15 Sudoeste 18 Sudoeste -- -- -- 59
2018-09-20 02:00:00 17.6 15 Sudoeste 18 Sudoeste -- -- -- 54
2018-09-20 01:00:00 18.2 15 Sudoeste 18 Sudoeste -- -- -- 53
2018-09-20 00:00:00 20.8 10 Sudoeste 18 Sur -- -- -- 47
2018-09-19 23:00:00 22.9 13 Sudoeste 17 Sur -- -- -- 41
2018-09-19 22:00:00 21.9 4 Sudeste 5 Sur -- -- -- 42
2018-09-19 21:00:00 23.9 2 Oeste 9 Noroeste -- -- -- 39
2018-09-19 20:00:00 28.2 9 Oeste 16 Oeste -- -- -- 31
2018-09-19 19:00:00 30.2 14 Oeste 22 Oeste -- -- -- 27
2018-09-19 18:00:00 31.2 10 Oeste 22 Oeste -- -- -- 28
2018-09-19 17:00:00 30 13 Sudoeste 25 Sudoeste -- -- -- 29
2018-09-19 16:00:00 30.1 15 Sudoeste 27 Sudoeste -- -- -- 30
2018-09-19 15:00:00 30.6 6 Sur 22 Sudoeste -- -- -- 30
2018-09-19 14:00:00 29.6 7 Oeste 14 Oeste -- -- -- 34
2018-09-19 13:00:00 27.9 4 Oeste 8 Oeste -- -- -- 38
2018-09-19 12:00:00 25.7 5 Oeste 12 Oeste -- -- -- 42
2018-09-19 11:00:00 23.1 5 Oeste 10 Oeste -- -- -- 51
2018-09-19 10:00:00 20.2 3 Noroeste 8 Noroeste -- -- -- 62
2018-09-19 09:00:00 15.3 3 Oeste 6 Sudoeste -- -- -- 78
2018-09-19 08:00:00 12.8 7 Sudeste 9 Sudeste -- -- -- 86
2018-09-19 07:00:00 12.7 10 Sur 11 Sur -- -- -- 87
2018-09-19 06:00:00 12.8 7 Sudoeste 12 Sur -- -- -- 84
2018-09-19 05:00:00 13.6 6 Sur 17 Oeste -- -- -- 81
2018-09-19 04:00:00 14.2 3 Sur 9 Sudeste -- -- -- 80
2018-09-19 03:00:00 14.5 9 Sudeste 12 Sudeste -- -- -- 79
2018-09-19 02:00:00 15 5 Sudeste 12 Este -- -- -- 78
2018-09-19 01:00:00 14.9 6 Este 10 Este -- -- -- 75
2018-09-19 00:00:00 16.4 4 Sur 9 Este -- -- -- 72
2018-09-18 23:00:00 18.3 4 Sur 8 Sur -- -- -- 64
2018-09-18 22:00:00 19.3 4 Sudeste 10 Sur -- -- -- 63
2018-09-18 21:00:00 20.8 8 Sur 18 Sur -- -- -- 59
2018-09-18 20:00:00 23.9 11 Sur 23 Sur -- -- -- 48
2018-09-18 19:00:00 24.3 18 Sudoeste 45 Sur -- -- -- 51
2018-09-18 18:00:00 26.9 31 Sur 48 Sudoeste -- -- -- 37
2018-09-18 17:00:00 30.8 9 Sudoeste 27 Sudoeste -- -- -- 31
2018-09-18 16:00:00 30 5 Noroeste 26 Oeste -- -- -- 32
2018-09-18 15:00:00 29.8 11 Oeste 22 Oeste -- -- -- 32
2018-09-18 14:00:00 28.7 9 Norte 17 Noroeste -- -- -- 34
2018-09-18 13:00:00 27.8 4 Sudoeste 14 Oeste -- -- -- 36
2018-09-18 12:00:00 26.9 5 Oeste 11 Noroeste -- -- -- 37
2018-09-18 11:00:00 24.6 6 Noroeste 18 Oeste -- -- -- 43
2018-09-18 10:00:00 20.5 10 Sudoeste 14 Sudoeste -- -- -- 56
2018-09-18 09:00:00 17.3 8 Sudoeste 13 Sudoeste -- -- -- 67
2018-09-18 08:00:00 15.5 13 Sudoeste 19 Sudoeste -- -- -- 74
2018-09-18 07:00:00 16.1 11 Sudoeste 15 Sudoeste -- -- -- 71
2018-09-18 06:00:00 17 10 Sur 15 Sudoeste -- -- -- 65
2018-09-18 05:00:00 16.6 11 Sudeste 18 Sudeste -- -- -- 68
2018-09-18 04:00:00 17.4 4 Sur 9 Sudoeste -- -- -- 65
2018-09-18 03:00:00 19.8 8 Sudoeste 19 Oeste -- -- -- 63
2018-09-18 02:00:00 20.5 16 Oeste 23 Oeste -- -- -- 65
2018-09-18 01:00:00 21.3 8 Sudoeste 15 Oeste -- -- -- 56
2018-09-18 00:00:00 21.7 13 Sudoeste 21 Sudoeste -- -- -- 52
2018-09-17 23:00:00 21.7 14 Oeste 16 Oeste -- -- -- 50
2018-09-17 22:00:00 22.9 6 Oeste 13 Noroeste -- -- -- 59
2018-09-17 21:00:00 24.6 7 Sur 15 Sur -- -- -- 38
2018-09-17 20:00:00 27.2 12 Sur 27 Sudoeste -- -- -- 32
2018-09-17 19:00:00 28.8 23 Sudoeste 36 Sudoeste -- -- -- 29
2018-09-17 18:00:00 31.8 5 Sur 16 Sudoeste -- -- -- 25
2018-09-17 17:00:00 29.7 10 Sudoeste 38 Sudoeste -- -- -- 28
2018-09-17 16:00:00 30 15 Sur 26 Sudeste -- -- -- 27
2018-09-17 15:00:00 29.8 9 Sur 30 Sur -- -- -- 29
2018-09-17 14:00:00 30.1 13 Sur 34 Sudeste -- -- -- 30
2018-09-17 13:00:00 29.9 14 Sudeste 27 Sudeste -- -- -- 30
2018-09-17 12:00:00 28.5 17 Sudeste 27 Sudeste -- -- -- 35
2018-09-17 11:00:00 26.6 19 Sudeste 24 Sudeste -- -- -- 41
2018-09-17 10:00:00 22.6 15 Sur 23 Sur -- -- -- 48
2018-09-17 09:00:00 18.4 0 Calma 8 Sur -- -- -- 60
2018-09-17 08:00:00 14.2 4 Sudeste 12 Sudeste -- -- -- 72
2018-09-17 07:00:00 14 3 Sur 9 Sudeste -- -- -- 71
2018-09-17 06:00:00 15.2 4 Sur 9 Sur -- -- -- 68
2018-09-17 05:00:00 16.4 5 Sudoeste 10 Sudeste -- -- -- 65
2018-09-17 04:00:00 18 6 Sur 13 Sudoeste -- -- -- 60
2018-09-17 03:00:00 17.7 11 Sudoeste 14 Sudoeste -- -- -- 61
2018-09-17 02:00:00 17.4 9 Sudoeste 15 Sur -- -- -- 60
2018-09-17 01:00:00 19.3 12 Sudoeste 14 Sudoeste -- -- -- 54
2018-09-17 00:00:00 20.7 11 Sudoeste 15 Sudoeste -- -- -- 50
2018-09-16 23:00:00 22 12 Sudoeste 21 Sudoeste -- -- -- 43
2018-09-16 22:00:00 21.4 3 Sudeste 4 Sudeste -- -- -- 47
2018-09-16 21:00:00 23.2 2 Sur 4 Nordeste -- -- -- 41
2018-09-16 20:00:00 27.3 4 Nordeste 7 Norte -- -- -- 33
2018-09-16 19:00:00 28.4 6 Noroeste 13 Norte -- -- -- 31
2018-09-16 18:00:00 29.1 12 Noroeste 39 Noroeste -- -- -- 28
2018-09-16 17:00:00 31.2 11 Noroeste 21 Noroeste -- -- -- 27
2018-09-16 16:00:00 29.8 7 Nordeste 14 Nordeste -- -- -- 29
2018-09-16 15:00:00 29.1 5 Noroeste 15 Oeste -- -- -- 33
2018-09-16 14:00:00 30.3 6 Sudoeste 15 Noroeste -- -- -- 33
2018-09-16 13:00:00 29 8 Noroeste 19 Sudoeste -- -- -- 37
2018-09-16 12:00:00 26.9 12 Oeste 18 Oeste -- -- -- 42
2018-09-16 11:00:00 24.7 9 Sudoeste 21 Sudoeste -- -- -- 46
2018-09-16 10:00:00 21.7 14 Sudoeste 20 Sudoeste -- -- -- 52
2018-09-16 09:00:00 17.9 13 Sudoeste 18 Sudoeste -- -- -- 63
2018-09-16 08:00:00 14.7 12 Sudoeste 14 Sudoeste -- -- -- 71
2018-09-16 07:00:00 13.8 9 Sur 11 Sudoeste -- -- -- 72
2018-09-16 06:00:00 14 8 Sur 10 Sur -- -- -- 73
2018-09-16 05:00:00 15.2 4 Sur 10 Sur -- -- -- 70
2018-09-16 04:00:00 15.9 9 Sur 13 Sur -- -- -- 67
2018-09-16 03:00:00 16.9 7 Sur 21 Sudeste -- -- -- 64
2018-09-16 02:00:00 19 15 Sudeste 20 Sudeste -- -- -- 57
2018-09-16 01:00:00 17.6 5 Sudeste 16 Sur -- -- -- 63
2018-09-16 00:00:00 19.2 11 Sudoeste 16 Sudoeste -- -- -- 57
2018-09-15 23:00:00 20.6 10 Sudoeste 17 Sur -- -- -- 51
2018-09-15 22:00:00 23.5 12 Sur 15 Sur -- -- -- 43
2018-09-15 21:00:00 24 4 Norte 9 Noroeste -- -- -- 36
2018-09-15 20:00:00 29.7 3 Noroeste 12 Sudoeste -- -- -- 26
2018-09-15 19:00:00 31.4 9 Oeste 20 Oeste -- -- -- 23
2018-09-15 18:00:00 32.2 5 Noroeste 20 Noroeste -- -- -- 23
2018-09-15 17:00:00 31 9 Norte 22 Norte -- -- -- 25
2018-09-15 16:00:00 29.9 11 Norte 19 Norte -- -- -- 27
2018-09-15 15:00:00 30.1 8 Norte 17 Norte -- -- -- 32
2018-09-15 14:00:00 29.8 5 Oeste 11 Oeste -- -- -- 35
2018-09-15 13:00:00 27 5 Noroeste 10 Sur -- -- -- 42
2018-09-15 12:00:00 24.8 4 Nordeste 10 Norte -- -- -- 47
2018-09-15 11:00:00 21.1 4 Norte 8 Norte -- -- -- 57
2018-09-15 10:00:00 18.4 3 Norte 8 Norte -- -- -- 68
2018-09-15 09:00:00 15.5 2 Sudoeste 5 Sur -- -- -- 76
2018-09-15 08:00:00 10.9 4 Oeste 5 Oeste -- -- -- 87
2018-09-15 07:00:00 11.8 2 Noroeste 9 Oeste -- -- -- 87
2018-09-15 06:00:00 12.5 0 Calma 16 Oeste -- -- -- 79
2018-09-15 05:00:00 12.9 5 Oeste 12 Nordeste -- -- -- 79
2018-09-15 04:00:00 15.8 7 Nordeste 15 Nordeste -- -- -- 68
2018-09-15 03:00:00 16.8 8 Norte 13 Norte -- -- -- 62
2018-09-15 02:00:00 17.1 6 Norte 12 Norte -- -- -- 57
2018-09-15 01:00:00 18 4 Nordeste 9 Nordeste -- -- -- 53
2018-09-15 00:00:00 19 4 Este 8 Nordeste -- -- -- 49